Redings Mill, Missouri
Current Conditions -  °F | °C
As of 8:53 AM on Wednesday 22 Oct 2014 (Local Time) from KJLN Reporting Station
Broken Clouds Broken Clouds  
Wind Chill: 55°   Ceiling: 6000
Heat Index: 55°   Visibility: 10mi
Dew Point: 48°   Wind: 9mph
Humidity: 77%   Direction: 130°SE
Pressure: 30.21"   Gusts: NA
Location:  37.1074°N, 94.5218°W
Report Text: KJLN 221353Z 13008KT 10SM BKN060 13/09 A3021 RMK AO2 SLP227 T01280089
Loading
Personal Weather Stations






























Interactive Weather Map New forecast layout! Learn more

10-Day Weather Forecast

Advertisements
Track Severe Weather on mobile